sensor_id;sensor_type;location;lat;lon;timestamp;P1;durP1;ratioP1;P2;durP2;ratioP2
49103;SDS011;34915;52.926;11.116;2023-04-25T00:02:09;7.10;;;2.07;;
49103;SDS011;34915;52.926;11.116;2023-04-25T00:04:34;3.17;;;1.10;;
49103;SDS011;34915;52.926;11.116;2023-04-25T00:07:00;1.90;;;1.40;;
49103;SDS011;34915;52.926;11.116;2023-04-25T00:09:28;1.53;;;1.37;;
49103;SDS011;34915;52.926;11.116;2023-04-25T00:11:54;4.47;;;1.50;;
49103;SDS011;34915;52.926;11.116;2023-04-25T00:14:20;3.80;;;1.63;;
49103;SDS011;34915;52.926;11.116;2023-04-25T00:16:46;1.67;;;1.40;;
49103;SDS011;34915;52.926;11.116;2023-04-25T00:19:13;3.93;;;1.57;;
49103;SDS011;34915;52.926;11.116;2023-04-25T00:21:39;3.13;;;1.70;;
49103;SDS011;34915;52.926;11.116;2023-04-25T00:24:06;6.07;;;1.93;;
49103;SDS011;34915;52.926;11.116;2023-04-25T00:26:33;2.53;;;1.40;;
49103;SDS011;34915;52.926;11.116;2023-04-25T00:28:59;2.60;;;1.33;;
49103;SDS011;34915;52.926;11.116;2023-04-25T00:31:25;3.17;;;1.63;;
49103;SDS011;34915;52.926;11.116;2023-04-25T00:33:51;1.90;;;1.43;;
49103;SDS011;34915;52.926;11.116;2023-04-25T00:36:16;2.07;;;1.27;;
49103;SDS011;34915;52.926;11.116;2023-04-25T00:38:43;3.67;;;2.20;;
49103;SDS011;34915;52.926;11.116;2023-04-25T00:41:08;4.83;;;1.63;;
49103;SDS011;34915;52.926;11.116;2023-04-25T00:43:34;3.80;;;2.20;;
49103;SDS011;34915;52.926;11.116;2023-04-25T00:46:01;4.57;;;1.90;;
49103;SDS011;34915;52.926;11.116;2023-04-25T00:48:27;3.30;;;1.90;;
49103;SDS011;34915;52.926;11.116;2023-04-25T00:50:53;2.87;;;2.10;;
49103;SDS011;34915;52.926;11.116;2023-04-25T00:53:20;2.67;;;2.03;;
49103;SDS011;34915;52.926;11.116;2023-04-25T00:55:47;3.40;;;1.93;;
49103;SDS011;34915;52.926;11.116;2023-04-25T00:58:16;3.67;;;1.97;;
49103;SDS011;34915;52.926;11.116;2023-04-25T01:00:45;3.80;;;2.43;;
49103;SDS011;34915;52.926;11.116;2023-04-25T01:03:12;2.67;;;1.90;;
49103;SDS011;34915;52.926;11.116;2023-04-25T01:05:40;2.30;;;1.50;;
49103;SDS011;34915;52.926;11.116;2023-04-25T01:08:06;4.97;;;1.80;;
49103;SDS011;34915;52.926;11.116;2023-04-25T01:10:32;3.27;;;1.80;;
49103;SDS011;34915;52.926;11.116;2023-04-25T01:12:57;4.77;;;2.27;;
49103;SDS011;34915;52.926;11.116;2023-04-25T01:15:23;3.13;;;1.50;;
49103;SDS011;34915;52.926;11.116;2023-04-25T01:17:49;3.83;;;1.63;;
49103;SDS011;34915;52.926;11.116;2023-04-25T01:20:14;2.73;;;1.30;;
49103;SDS011;34915;52.926;11.116;2023-04-25T01:22:41;8.03;;;1.83;;
49103;SDS011;34915;52.926;11.116;2023-04-25T01:25:07;1.43;;;1.30;;
49103;SDS011;34915;52.926;11.116;2023-04-25T01:27:35;2.17;;;1.40;;
49103;SDS011;34915;52.926;11.116;2023-04-25T01:33:37;3.93;;;1.40;;
49103;SDS011;34915;52.926;11.116;2023-04-25T01:36:02;4.77;;;1.47;;
49103;SDS011;34915;52.926;11.116;2023-04-25T01:38:29;1.10;;;1.00;;
49103;SDS011;34915;52.926;11.116;2023-04-25T01:40:55;2.17;;;1.60;;
49103;SDS011;34915;52.926;11.116;2023-04-25T01:43:21;2.43;;;1.20;;
49103;SDS011;34915;52.926;11.116;2023-04-25T01:45:46;3.50;;;1.73;;
49103;SDS011;34915;52.926;11.116;2023-04-25T01:48:14;3.63;;;1.60;;
49103;SDS011;34915;52.926;11.116;2023-04-25T01:50:43;1.73;;;1.43;;
49103;SDS011;34915;52.926;11.116;2023-04-25T01:53:09;6.07;;;1.77;;
49103;SDS011;34915;52.926;11.116;2023-04-25T01:55:37;2.37;;;1.50;;
49103;SDS011;34915;52.926;11.116;2023-04-25T01:58:03;2.93;;;1.97;;
49103;SDS011;34915;52.926;11.116;2023-04-25T02:00:34;3.10;;;1.90;;
49103;SDS011;34915;52.926;11.116;2023-04-25T02:03:03;5.37;;;1.70;;
49103;SDS011;34915;52.926;11.116;2023-04-25T02:05:33;2.60;;;1.23;;
49103;SDS011;34915;52.926;11.116;2023-04-25T02:07:59;2.70;;;1.37;;
49103;SDS011;34915;52.926;11.116;2023-04-25T02:14:07;2.33;;;1.67;;
49103;SDS011;34915;52.926;11.116;2023-04-25T02:16:33;2.83;;;1.83;;
49103;SDS011;34915;52.926;11.116;2023-04-25T02:18:58;1.83;;;1.60;;
49103;SDS011;34915;52.926;11.116;2023-04-25T02:21:24;1.60;;;1.50;;
49103;SDS011;34915;52.926;11.116;2023-04-25T02:23:51;6.67;;;2.00;;
49103;SDS011;34915;52.926;11.116;2023-04-25T02:26:17;3.17;;;1.67;;
49103;SDS011;34915;52.926;11.116;2023-04-25T02:28:42;4.77;;;1.80;;
49103;SDS011;34915;52.926;11.116;2023-04-25T02:31:08;3.40;;;1.97;;
49103;SDS011;34915;52.926;11.116;2023-04-25T02:33:33;1.90;;;1.50;;
49103;SDS011;34915;52.926;11.116;2023-04-25T02:35:59;3.97;;;2.10;;
49103;SDS011;34915;52.926;11.116;2023-04-25T02:38:25;2.60;;;2.13;;
49103;SDS011;34915;52.926;11.116;2023-04-25T02:40:51;1.83;;;1.70;;
49103;SDS011;34915;52.926;11.116;2023-04-25T02:43:16;7.90;;;2.23;;
49103;SDS011;34915;52.926;11.116;2023-04-25T02:45:42;4.43;;;2.07;;
49103;SDS011;34915;52.926;11.116;2023-04-25T02:48:07;1.73;;;1.50;;
49103;SDS011;34915;52.926;11.116;2023-04-25T02:50:33;2.70;;;1.80;;
49103;SDS011;34915;52.926;11.116;2023-04-25T02:52:58;8.33;;;1.60;;
49103;SDS011;34915;52.926;11.116;2023-04-25T02:55:24;6.20;;;1.77;;
49103;SDS011;34915;52.926;11.116;2023-04-25T02:57:50;5.83;;;2.10;;
49103;SDS011;34915;52.926;11.116;2023-04-25T03:00:15;5.63;;;2.03;;
49103;SDS011;34915;52.926;11.116;2023-04-25T03:02:41;5.10;;;1.90;;
49103;SDS011;34915;52.926;11.116;2023-04-25T03:05:06;2.37;;;1.87;;
49103;SDS011;34915;52.926;11.116;2023-04-25T03:07:32;2.47;;;1.40;;
49103;SDS011;34915;52.926;11.116;2023-04-25T03:09:57;1.70;;;1.60;;
49103;SDS011;34915;52.926;11.116;2023-04-25T03:12:23;1.80;;;1.50;;
49103;SDS011;34915;52.926;11.116;2023-04-25T03:14:49;2.97;;;1.90;;
49103;SDS011;34915;52.926;11.116;2023-04-25T03:17:15;3.03;;;1.83;;
49103;SDS011;34915;52.926;11.116;2023-04-25T03:19:41;3.13;;;1.73;;
49103;SDS011;34915;52.926;11.116;2023-04-25T03:22:06;9.33;;;1.97;;
49103;SDS011;34915;52.926;11.116;2023-04-25T03:24:32;5.57;;;1.43;;
49103;SDS011;34915;52.926;11.116;2023-04-25T03:26:59;11.30;;;1.87;;
49103;SDS011;34915;52.926;11.116;2023-04-25T03:29:25;5.07;;;1.50;;
49103;SDS011;34915;52.926;11.116;2023-04-25T03:31:54;5.60;;;1.73;;
49103;SDS011;34915;52.926;11.116;2023-04-25T03:34:19;3.63;;;1.90;;
49103;SDS011;34915;52.926;11.116;2023-04-25T03:36:46;13.43;;;1.63;;
49103;SDS011;34915;52.926;11.116;2023-04-25T03:39:14;7.53;;;1.70;;
49103;SDS011;34915;52.926;11.116;2023-04-25T03:41:39;10.00;;;1.77;;
49103;SDS011;34915;52.926;11.116;2023-04-25T03:44:05;7.37;;;1.63;;
49103;SDS011;34915;52.926;11.116;2023-04-25T03:46:31;5.67;;;1.90;;
49103;SDS011;34915;52.926;11.116;2023-04-25T03:48:58;5.17;;;1.57;;
49103;SDS011;34915;52.926;11.116;2023-04-25T03:51:24;7.17;;;1.67;;
49103;SDS011;34915;52.926;11.116;2023-04-25T03:53:51;5.20;;;1.67;;
49103;SDS011;34915;52.926;11.116;2023-04-25T03:56:17;15.27;;;1.73;;
49103;SDS011;34915;52.926;11.116;2023-04-25T03:58:43;9.50;;;2.30;;
49103;SDS011;34915;52.926;11.116;2023-04-25T04:01:09;6.37;;;2.20;;
49103;SDS011;34915;52.926;11.116;2023-04-25T04:03:34;4.77;;;1.37;;
49103;SDS011;34915;52.926;11.116;2023-04-25T04:06:01;5.93;;;1.47;;
49103;SDS011;34915;52.926;11.116;2023-04-25T04:08:31;11.23;;;1.73;;
49103;SDS011;34915;52.926;11.116;2023-04-25T04:10:57;14.23;;;2.17;;
49103;SDS011;34915;52.926;11.116;2023-04-25T04:13:26;11.77;;;1.97;;
49103;SDS011;34915;52.926;11.116;2023-04-25T04:15:52;7.03;;;1.60;;
49103;SDS011;34915;52.926;11.116;2023-04-25T04:18:18;15.50;;;2.10;;
49103;SDS011;34915;52.926;11.116;2023-04-25T04:20:44;9.27;;;1.93;;
49103;SDS011;34915;52.926;11.116;2023-04-25T04:23:09;6.23;;;2.20;;
49103;SDS011;34915;52.926;11.116;2023-04-25T04:25:35;12.50;;;2.40;;
49103;SDS011;34915;52.926;11.116;2023-04-25T04:28:01;9.50;;;2.33;;
49103;SDS011;34915;52.926;11.116;2023-04-25T04:30:28;4.53;;;1.40;;
49103;SDS011;34915;52.926;11.116;2023-04-25T04:32:56;6.97;;;1.53;;
49103;SDS011;34915;52.926;11.116;2023-04-25T04:35:22;8.50;;;2.10;;
49103;SDS011;34915;52.926;11.116;2023-04-25T04:37:48;13.03;;;2.00;;
49103;SDS011;34915;52.926;11.116;2023-04-25T04:40:14;13.20;;;2.30;;
49103;SDS011;34915;52.926;11.116;2023-04-25T04:42:41;15.87;;;2.27;;
49103;SDS011;34915;52.926;11.116;2023-04-25T04:45:07;18.10;;;1.90;;
49103;SDS011;34915;52.926;11.116;2023-04-25T04:47:34;4.77;;;1.63;;
49103;SDS011;34915;52.926;11.116;2023-04-25T04:50:02;9.90;;;1.30;;
49103;SDS011;34915;52.926;11.116;2023-04-25T04:52:29;7.83;;;1.80;;
49103;SDS011;34915;52.926;11.116;2023-04-25T04:54:55;12.17;;;2.00;;
49103;SDS011;34915;52.926;11.116;2023-04-25T04:57:21;16.87;;;2.43;;
49103;SDS011;34915;52.926;11.116;2023-04-25T04:59:47;6.47;;;1.80;;
49103;SDS011;34915;52.926;11.116;2023-04-25T05:02:12;6.47;;;2.03;;
49103;SDS011;34915;52.926;11.116;2023-04-25T05:04:38;5.83;;;1.23;;
49103;SDS011;34915;52.926;11.116;2023-04-25T05:07:03;5.00;;;1.50;;
49103;SDS011;34915;52.926;11.116;2023-04-25T05:09:29;7.10;;;1.53;;
49103;SDS011;34915;52.926;11.116;2023-04-25T05:11:55;10.27;;;2.00;;
49103;SDS011;34915;52.926;11.116;2023-04-25T05:14:20;5.93;;;2.10;;
49103;SDS011;34915;52.926;11.116;2023-04-25T05:16:46;8.73;;;1.90;;
49103;SDS011;34915;52.926;11.116;2023-04-25T05:19:12;6.77;;;2.27;;
49103;SDS011;34915;52.926;11.116;2023-04-25T05:21:38;4.60;;;1.80;;
49103;SDS011;34915;52.926;11.116;2023-04-25T05:24:03;14.00;;;1.97;;
49103;SDS011;34915;52.926;11.116;2023-04-25T05:26:29;7.03;;;1.50;;
49103;SDS011;34915;52.926;11.116;2023-04-25T05:28:59;11.83;;;1.37;;
49103;SDS011;34915;52.926;11.116;2023-04-25T05:31:25;7.27;;;2.00;;
49103;SDS011;34915;52.926;11.116;2023-04-25T05:33:50;3.17;;;1.33;;
49103;SDS011;34915;52.926;11.116;2023-04-25T05:36:17;7.40;;;1.93;;
49103;SDS011;34915;52.926;11.116;2023-04-25T05:38:44;4.03;;;1.50;;
49103;SDS011;34915;52.926;11.116;2023-04-25T05:41:09;9.70;;;1.97;;
49103;SDS011;34915;52.926;11.116;2023-04-25T05:43:35;8.17;;;1.77;;
49103;SDS011;34915;52.926;11.116;2023-04-25T05:46:00;7.60;;;1.47;;
49103;SDS011;34915;52.926;11.116;2023-04-25T05:48:26;10.60;;;1.20;;
49103;SDS011;34915;52.926;11.116;2023-04-25T05:50:51;6.17;;;1.30;;
49103;SDS011;34915;52.926;11.116;2023-04-25T05:53:18;9.07;;;2.20;;
49103;SDS011;34915;52.926;11.116;2023-04-25T05:55:44;6.63;;;2.13;;
49103;SDS011;34915;52.926;11.116;2023-04-25T05:58:10;7.83;;;2.63;;
49103;SDS011;34915;52.926;11.116;2023-04-25T06:00:35;4.97;;;1.20;;
49103;SDS011;34915;52.926;11.116;2023-04-25T06:03:01;8.20;;;1.47;;
49103;SDS011;34915;52.926;11.116;2023-04-25T06:05:26;6.37;;;1.90;;
49103;SDS011;34915;52.926;11.116;2023-04-25T06:07:52;9.57;;;1.53;;
49103;SDS011;34915;52.926;11.116;2023-04-25T06:10:17;6.60;;;1.40;;
49103;SDS011;34915;52.926;11.116;2023-04-25T06:12:43;7.07;;;1.30;;
49103;SDS011;34915;52.926;11.116;2023-04-25T06:15:09;8.63;;;1.50;;
49103;SDS011;34915;52.926;11.116;2023-04-25T06:17:35;7.33;;;1.73;;
49103;SDS011;34915;52.926;11.116;2023-04-25T06:20:01;7.97;;;1.70;;
49103;SDS011;34915;52.926;11.116;2023-04-25T06:22:27;7.87;;;2.03;;
49103;SDS011;34915;52.926;11.116;2023-04-25T06:24:52;13.97;;;1.70;;
49103;SDS011;34915;52.926;11.116;2023-04-25T06:27:18;4.57;;;1.20;;
49103;SDS011;34915;52.926;11.116;2023-04-25T06:29:43;6.80;;;1.60;;
49103;SDS011;34915;52.926;11.116;2023-04-25T06:32:09;14.73;;;2.00;;
49103;SDS011;34915;52.926;11.116;2023-04-25T06:34:35;6.40;;;1.20;;
49103;SDS011;34915;52.926;11.116;2023-04-25T06:37:00;13.50;;;2.63;;
49103;SDS011;34915;52.926;11.116;2023-04-25T06:39:26;7.43;;;1.57;;
49103;SDS011;34915;52.926;11.116;2023-04-25T06:41:51;6.57;;;1.00;;
49103;SDS011;34915;52.926;11.116;2023-04-25T06:44:18;5.80;;;1.03;;
49103;SDS011;34915;52.926;11.116;2023-04-25T06:46:44;7.20;;;1.30;;
49103;SDS011;34915;52.926;11.116;2023-04-25T06:49:09;5.73;;;1.80;;
49103;SDS011;34915;52.926;11.116;2023-04-25T06:51:35;3.00;;;1.30;;
49103;SDS011;34915;52.926;11.116;2023-04-25T06:54:00;8.13;;;1.40;;
49103;SDS011;34915;52.926;11.116;2023-04-25T06:56:26;6.83;;;1.50;;
49103;SDS011;34915;52.926;11.116;2023-04-25T06:58:54;6.60;;;1.37;;
49103;SDS011;34915;52.926;11.116;2023-04-25T07:01:20;5.37;;;1.10;;
49103;SDS011;34915;52.926;11.116;2023-04-25T07:03:45;5.47;;;1.77;;
49103;SDS011;34915;52.926;11.116;2023-04-25T07:06:11;9.63;;;0.97;;
49103;SDS011;34915;52.926;11.116;2023-04-25T07:08:36;7.27;;;1.60;;
49103;SDS011;34915;52.926;11.116;2023-04-25T07:11:02;5.97;;;1.30;;
49103;SDS011;34915;52.926;11.116;2023-04-25T07:13:27;6.40;;;1.60;;
49103;SDS011;34915;52.926;11.116;2023-04-25T07:15:53;4.63;;;1.87;;
49103;SDS011;34915;52.926;11.116;2023-04-25T07:18:18;7.67;;;1.80;;
49103;SDS011;34915;52.926;11.116;2023-04-25T07:20:44;3.70;;;1.17;;
49103;SDS011;34915;52.926;11.116;2023-04-25T07:23:10;11.43;;;1.83;;
49103;SDS011;34915;52.926;11.116;2023-04-25T07:25:35;2.07;;;1.00;;
49103;SDS011;34915;52.926;11.116;2023-04-25T07:28:04;5.03;;;1.23;;
49103;SDS011;34915;52.926;11.116;2023-04-25T07:30:30;3.73;;;1.27;;
49103;SDS011;34915;52.926;11.116;2023-04-25T07:32:55;12.77;;;1.60;;
49103;SDS011;34915;52.926;11.116;2023-04-25T07:35:21;6.17;;;1.30;;
49103;SDS011;34915;52.926;11.116;2023-04-25T07:37:47;7.00;;;1.20;;
49103;SDS011;34915;52.926;11.116;2023-04-25T07:40:13;3.13;;;1.23;;
49103;SDS011;34915;52.926;11.116;2023-04-25T07:42:40;3.00;;;1.17;;
49103;SDS011;34915;52.926;11.116;2023-04-25T07:45:06;8.37;;;1.40;;
49103;SDS011;34915;52.926;11.116;2023-04-25T07:47:32;5.80;;;1.60;;
49103;SDS011;34915;52.926;11.116;2023-04-25T07:49:58;6.30;;;2.00;;
49103;SDS011;34915;52.926;11.116;2023-04-25T07:52:23;5.33;;;2.00;;
49103;SDS011;34915;52.926;11.116;2023-04-25T07:54:49;2.67;;;1.27;;
49103;SDS011;34915;52.926;11.116;2023-04-25T07:57:15;8.37;;;2.37;;
49103;SDS011;34915;52.926;11.116;2023-04-25T07:59:42;6.83;;;2.00;;
49103;SDS011;34915;52.926;11.116;2023-04-25T08:02:08;5.00;;;1.73;;
49103;SDS011;34915;52.926;11.116;2023-04-25T08:04:33;4.30;;;1.60;;
49103;SDS011;34915;52.926;11.116;2023-04-25T08:06:59;2.93;;;1.00;;
49103;SDS011;34915;52.926;11.116;2023-04-25T08:09:25;3.23;;;1.00;;
49103;SDS011;34915;52.926;11.116;2023-04-25T08:11:50;13.70;;;2.77;;
49103;SDS011;34915;52.926;11.116;2023-04-25T08:14:16;6.43;;;1.60;;
49103;SDS011;34915;52.926;11.116;2023-04-25T08:16:41;3.77;;;2.07;;
49103;SDS011;34915;52.926;11.116;2023-04-25T08:19:07;3.83;;;1.33;;
49103;SDS011;34915;52.926;11.116;2023-04-25T08:21:33;8.20;;;2.60;;
49103;SDS011;34915;52.926;11.116;2023-04-25T08:23:58;3.77;;;1.27;;
49103;SDS011;34915;52.926;11.116;2023-04-25T08:26:24;3.73;;;1.03;;
49103;SDS011;34915;52.926;11.116;2023-04-25T08:28:50;1.10;;;1.00;;
49103;SDS011;34915;52.926;11.116;2023-04-25T08:31:16;6.13;;;1.60;;
49103;SDS011;34915;52.926;11.116;2023-04-25T08:33:42;3.33;;;1.27;;
49103;SDS011;34915;52.926;11.116;2023-04-25T08:36:11;8.40;;;2.60;;
49103;SDS011;34915;52.926;11.116;2023-04-25T08:38:36;6.07;;;2.27;;
49103;SDS011;34915;52.926;11.116;2023-04-25T08:41:03;7.83;;;2.00;;
49103;SDS011;34915;52.926;11.116;2023-04-25T08:43:31;5.30;;;0.93;;
49103;SDS011;34915;52.926;11.116;2023-04-25T08:45:59;5.67;;;1.03;;
49103;SDS011;34915;52.926;11.116;2023-04-25T08:48:26;1.00;;;0.87;;
49103;SDS011;34915;52.926;11.116;2023-04-25T08:50:54;2.67;;;1.13;;
49103;SDS011;34915;52.926;11.116;2023-04-25T08:53:28;9.20;;;1.40;;
49103;SDS011;34915;52.926;11.116;2023-04-25T08:55:55;4.73;;;1.07;;
49103;SDS011;34915;52.926;11.116;2023-04-25T08:58:22;3.83;;;1.57;;
49103;SDS011;34915;52.926;11.116;2023-04-25T09:00:48;2.23;;;0.77;;
49103;SDS011;34915;52.926;11.116;2023-04-25T09:03:15;4.20;;;0.83;;
49103;SDS011;34915;52.926;11.116;2023-04-25T09:05:41;2.70;;;1.30;;
49103;SDS011;34915;52.926;11.116;2023-04-25T09:08:07;5.43;;;0.97;;
49103;SDS011;34915;52.926;11.116;2023-04-25T09:10:33;3.60;;;0.63;;
49103;SDS011;34915;52.926;11.116;2023-04-25T09:20:50;5.60;;;1.10;;
49103;SDS011;34915;52.926;11.116;2023-04-25T09:23:18;2.23;;;0.73;;
49103;SDS011;34915;52.926;11.116;2023-04-25T09:25:46;5.10;;;1.23;;
49103;SDS011;34915;52.926;11.116;2023-04-25T09:28:13;2.30;;;1.13;;
49103;SDS011;34915;52.926;11.116;2023-04-25T09:30:38;3.80;;;1.50;;
49103;SDS011;34915;52.926;11.116;2023-04-25T09:33:08;7.03;;;1.57;;
49103;SDS011;34915;52.926;11.116;2023-04-25T09:35:37;3.80;;;1.53;;
49103;SDS011;34915;52.926;11.116;2023-04-25T09:38:12;5.07;;;1.97;;
49103;SDS011;34915;52.926;11.116;2023-04-25T09:40:43;6.43;;;1.83;;
49103;SDS011;34915;52.926;11.116;2023-04-25T09:43:10;4.47;;;1.17;;
49103;SDS011;34915;52.926;11.116;2023-04-25T09:45:43;4.83;;;0.80;;
49103;SDS011;34915;52.926;11.116;2023-04-25T09:48:11;1.77;;;0.83;;
49103;SDS011;34915;52.926;11.116;2023-04-25T09:50:38;3.50;;;0.87;;
49103;SDS011;34915;52.926;11.116;2023-04-25T09:53:04;4.23;;;1.37;;
49103;SDS011;34915;52.926;11.116;2023-04-25T09:55:33;4.00;;;0.90;;
49103;SDS011;34915;52.926;11.116;2023-04-25T09:58:03;3.93;;;0.90;;
49103;SDS011;34915;52.926;11.116;2023-04-25T10:00:30;2.53;;;0.97;;
49103;SDS011;34915;52.926;11.116;2023-04-25T10:02:57;1.33;;;1.10;;
49103;SDS011;34915;52.926;11.116;2023-04-25T10:05:24;3.73;;;0.90;;
49103;SDS011;34915;52.926;11.116;2023-04-25T10:07:52;2.03;;;0.70;;
49103;SDS011;34915;52.926;11.116;2023-04-25T10:10:18;0.97;;;0.80;;
49103;SDS011;34915;52.926;11.116;2023-04-25T10:12:45;4.43;;;1.20;;
49103;SDS011;34915;52.926;11.116;2023-04-25T10:15:10;1.10;;;0.60;;
49103;SDS011;34915;52.926;11.116;2023-04-25T10:17:38;3.33;;;0.77;;
49103;SDS011;34915;52.926;11.116;2023-04-25T10:20:05;2.60;;;1.00;;
49103;SDS011;34915;52.926;11.116;2023-04-25T10:22:36;7.50;;;1.00;;
49103;SDS011;34915;52.926;11.116;2023-04-25T10:25:04;3.93;;;1.30;;
49103;SDS011;34915;52.926;11.116;2023-04-25T10:27:31;2.40;;;0.93;;
49103;SDS011;34915;52.926;11.116;2023-04-25T10:30:01;2.57;;;1.07;;
49103;SDS011;34915;52.926;11.116;2023-04-25T10:32:37;1.57;;;0.90;;
49103;SDS011;34915;52.926;11.116;2023-04-25T10:35:13;3.87;;;1.17;;
49103;SDS011;34915;52.926;11.116;2023-04-25T10:37:57;3.40;;;1.23;;
49103;SDS011;34915;52.926;11.116;2023-04-25T10:40:23;5.03;;;1.40;;
49103;SDS011;34915;52.926;11.116;2023-04-25T10:42:51;1.17;;;0.90;;
49103;SDS011;34915;52.926;11.116;2023-04-25T10:45:18;5.20;;;0.87;;
49103;SDS011;34915;52.926;11.116;2023-04-25T10:47:45;2.20;;;0.77;;
49103;SDS011;34915;52.926;11.116;2023-04-25T10:50:11;5.23;;;0.67;;
49103;SDS011;34915;52.926;11.116;2023-04-25T10:52:41;1.00;;;0.80;;
49103;SDS011;34915;52.926;11.116;2023-04-25T10:55:09;1.43;;;0.50;;
49103;SDS011;34915;52.926;11.116;2023-04-25T11:02:40;0.67;;;0.53;;
49103;SDS011;34915;52.926;11.116;2023-04-25T11:05:08;5.80;;;0.90;;
49103;SDS011;34915;52.926;11.116;2023-04-25T11:10:24;2.67;;;1.20;;
49103;SDS011;34915;52.926;11.116;2023-04-25T11:12:56;4.37;;;1.43;;
49103;SDS011;34915;52.926;11.116;2023-04-25T11:15:23;3.13;;;0.60;;
49103;SDS011;34915;52.926;11.116;2023-04-25T11:17:50;6.93;;;2.60;;
49103;SDS011;34915;52.926;11.116;2023-04-25T11:20:17;3.90;;;1.70;;
49103;SDS011;34915;52.926;11.116;2023-04-25T11:22:44;3.23;;;0.47;;
49103;SDS011;34915;52.926;11.116;2023-04-25T11:25:11;1.17;;;0.53;;
49103;SDS011;34915;52.926;11.116;2023-04-25T11:27:39;0.40;;;0.27;;
49103;SDS011;34915;52.926;11.116;2023-04-25T11:30:18;0.97;;;0.40;;
49103;SDS011;34915;52.926;11.116;2023-04-25T11:32:45;2.53;;;0.93;;
49103;SDS011;34915;52.926;11.116;2023-04-25T11:35:12;1.23;;;0.50;;
49103;SDS011;34915;52.926;11.116;2023-04-25T11:37:41;1.33;;;0.50;;
49103;SDS011;34915;52.926;11.116;2023-04-25T11:40:07;1.40;;;0.60;;
49103;SDS011;34915;52.926;11.116;2023-04-25T11:42:43;2.90;;;0.33;;
49103;SDS011;34915;52.926;11.116;2023-04-25T11:45:09;2.40;;;0.53;;
49103;SDS011;34915;52.926;11.116;2023-04-25T11:47:36;2.60;;;0.70;;
49103;SDS011;34915;52.926;11.116;2023-04-25T11:50:02;2.37;;;0.63;;
49103;SDS011;34915;52.926;11.116;2023-04-25T11:52:42;1.63;;;0.40;;
49103;SDS011;34915;52.926;11.116;2023-04-25T11:55:09;0.97;;;0.60;;
49103;SDS011;34915;52.926;11.116;2023-04-25T11:57:39;2.73;;;0.63;;
49103;SDS011;34915;52.926;11.116;2023-04-25T12:00:12;1.67;;;0.90;;
49103;SDS011;34915;52.926;11.116;2023-04-25T12:02:43;2.40;;;0.77;;
49103;SDS011;34915;52.926;11.116;2023-04-25T12:05:11;2.77;;;0.47;;
49103;SDS011;34915;52.926;11.116;2023-04-25T12:07:38;2.57;;;0.37;;
49103;SDS011;34915;52.926;11.116;2023-04-25T12:10:04;0.63;;;0.30;;
49103;SDS011;34915;52.926;11.116;2023-04-25T12:12:35;2.73;;;0.40;;
49103;SDS011;34915;52.926;11.116;2023-04-25T12:15:08;1.03;;;0.40;;
49103;SDS011;34915;52.926;11.116;2023-04-25T12:17:41;1.07;;;0.37;;
49103;SDS011;34915;52.926;11.116;2023-04-25T12:20:08;1.60;;;0.83;;
49103;SDS011;34915;52.926;11.116;2023-04-25T12:22:45;2.80;;;1.27;;
49103;SDS011;34915;52.926;11.116;2023-04-25T12:25:12;3.97;;;0.63;;
49103;SDS011;34915;52.926;11.116;2023-04-25T12:27:40;0.50;;;0.50;;
49103;SDS011;34915;52.926;11.116;2023-04-25T12:30:07;2.93;;;0.60;;
49103;SDS011;34915;52.926;11.116;2023-04-25T12:32:33;3.30;;;0.60;;
49103;SDS011;34915;52.926;11.116;2023-04-25T12:34:59;1.20;;;0.60;;
49103;SDS011;34915;52.926;11.116;2023-04-25T12:37:25;1.07;;;0.43;;
49103;SDS011;34915;52.926;11.116;2023-04-25T12:39:50;0.60;;;0.40;;
49103;SDS011;34915;52.926;11.116;2023-04-25T12:42:16;2.13;;;0.40;;
49103;SDS011;34915;52.926;11.116;2023-04-25T12:44:41;0.80;;;0.43;;
49103;SDS011;34915;52.926;11.116;2023-04-25T12:47:07;3.23;;;0.90;;
49103;SDS011;34915;52.926;11.116;2023-04-25T12:49:33;2.10;;;0.50;;
49103;SDS011;34915;52.926;11.116;2023-04-25T12:51:58;3.17;;;0.60;;
49103;SDS011;34915;52.926;11.116;2023-04-25T12:54:24;1.63;;;0.63;;
49103;SDS011;34915;52.926;11.116;2023-04-25T12:56:50;0.30;;;0.20;;
49103;SDS011;34915;52.926;11.116;2023-04-25T12:59:16;2.73;;;0.23;;
49103;SDS011;34915;52.926;11.116;2023-04-25T13:01:42;1.07;;;0.67;;
49103;SDS011;34915;52.926;11.116;2023-04-25T13:04:09;1.40;;;0.47;;
49103;SDS011;34915;52.926;11.116;2023-04-25T13:06:34;1.90;;;0.40;;
49103;SDS011;34915;52.926;11.116;2023-04-25T13:09:01;1.00;;;0.60;;
49103;SDS011;34915;52.926;11.116;2023-04-25T13:11:26;2.90;;;0.50;;
49103;SDS011;34915;52.926;11.116;2023-04-25T13:13:52;0.53;;;0.30;;
49103;SDS011;34915;52.926;11.116;2023-04-25T13:16:17;1.20;;;0.53;;
49103;SDS011;34915;52.926;11.116;2023-04-25T13:18:45;1.03;;;0.43;;
49103;SDS011;34915;52.926;11.116;2023-04-25T13:21:11;2.00;;;0.67;;
49103;SDS011;34915;52.926;11.116;2023-04-25T13:23:37;1.17;;;0.30;;
49103;SDS011;34915;52.926;11.116;2023-04-25T13:26:02;1.77;;;0.23;;
49103;SDS011;34915;52.926;11.116;2023-04-25T13:28:28;1.40;;;0.67;;
49103;SDS011;34915;52.926;11.116;2023-04-25T13:30:54;1.03;;;0.40;;
49103;SDS011;34915;52.926;11.116;2023-04-25T13:33:19;1.17;;;0.67;;
49103;SDS011;34915;52.926;11.116;2023-04-25T13:35:46;0.67;;;0.50;;
49103;SDS011;34915;52.926;11.116;2023-04-25T13:38:19;1.20;;;0.40;;
49103;SDS011;34915;52.926;11.116;2023-04-25T13:40:49;1.97;;;0.60;;
49103;SDS011;34915;52.926;11.116;2023-04-25T13:43:18;3.10;;;0.57;;
49103;SDS011;34915;52.926;11.116;2023-04-25T13:45:47;2.33;;;0.40;;
49103;SDS011;34915;52.926;11.116;2023-04-25T13:48:17;2.73;;;0.67;;
49103;SDS011;34915;52.926;11.116;2023-04-25T13:50:43;1.30;;;0.60;;
49103;SDS011;34915;52.926;11.116;2023-04-25T13:53:09;3.60;;;0.90;;
49103;SDS011;34915;52.926;11.116;2023-04-25T13:55:35;2.27;;;0.30;;
49103;SDS011;34915;52.926;11.116;2023-04-25T13:58:02;0.77;;;0.50;;
49103;SDS011;34915;52.926;11.116;2023-04-25T14:00:33;2.77;;;0.63;;
49103;SDS011;34915;52.926;11.116;2023-04-25T14:02:59;3.67;;;0.97;;
49103;SDS011;34915;52.926;11.116;2023-04-25T14:05:25;2.47;;;0.70;;
49103;SDS011;34915;52.926;11.116;2023-04-25T14:07:50;3.70;;;0.50;;
49103;SDS011;34915;52.926;11.116;2023-04-25T14:10:16;2.60;;;0.70;;
49103;SDS011;34915;52.926;11.116;2023-04-25T14:12:42;3.33;;;0.60;;
49103;SDS011;34915;52.926;11.116;2023-04-25T14:15:07;0.73;;;0.40;;
49103;SDS011;34915;52.926;11.116;2023-04-25T14:17:33;3.50;;;0.50;;
49103;SDS011;34915;52.926;11.116;2023-04-25T14:19:58;0.70;;;0.37;;
49103;SDS011;34915;52.926;11.116;2023-04-25T14:22:24;1.20;;;0.40;;
49103;SDS011;34915;52.926;11.116;2023-04-25T14:24:50;0.30;;;0.30;;
49103;SDS011;34915;52.926;11.116;2023-04-25T14:27:17;1.73;;;0.57;;
49103;SDS011;34915;52.926;11.116;2023-04-25T14:29:42;0.87;;;0.60;;
49103;SDS011;34915;52.926;11.116;2023-04-25T14:32:10;0.63;;;0.40;;
49103;SDS011;34915;52.926;11.116;2023-04-25T14:34:35;2.10;;;0.50;;
49103;SDS011;34915;52.926;11.116;2023-04-25T14:37:01;1.57;;;0.50;;
49103;SDS011;34915;52.926;11.116;2023-04-25T14:39:27;0.70;;;0.50;;
49103;SDS011;34915;52.926;11.116;2023-04-25T14:41:52;3.23;;;0.50;;
49103;SDS011;34915;52.926;11.116;2023-04-25T14:44:18;1.03;;;0.30;;
49103;SDS011;34915;52.926;11.116;2023-04-25T14:46:43;1.67;;;0.60;;
49103;SDS011;34915;52.926;11.116;2023-04-25T14:49:09;1.80;;;0.43;;
49103;SDS011;34915;52.926;11.116;2023-04-25T14:51:34;2.80;;;0.60;;
49103;SDS011;34915;52.926;11.116;2023-04-25T14:54:00;1.97;;;0.30;;